»·PEaware :: SWA4047 KLAS-KSNA

SWA4047 :: KLAS-KSNA

FLIGHT INFORMATION

Flight Status: Arrived
Operator:
Southwest Airlines
More flights by this operator :: More flights under this callsign
Pilot: Matthew M. (8235)
Aircraft: BOEING 737-200
(B732)
More flights by this aircraft type
Origin: KLAS McCarran Intl
United States
Destination: KSNA John Wayne-Orange Co
United States
More flights between these airports :: More routes between these airports
Route: +BOACH8 WHIGG FEYLA DSNEE2
File this flight plan on PilotEdge
Remarks: PBN / A1B2 DOF / 180114 OPR / SWA
Altitude:
(Current/Filed)
28,000ft
Speed:
(Current/Filed)
443kts
Departed: 13-Jan-18 04:37 PM
Arrived: 13-Jan-18 05:24 PM
Distance/Time
Traveled:
196nm/0:46
Distance/Time
To Go:
Arrived

Flight Plot

Page will automatically refresh every two minutes.

Flight plan parsing failed; only flown route is shown


Map Options




Map Legend


Flown Route
Filed Route
Departure Airport
Arrival Airport
Navaid (VOR, NDB)
Fix

Horizontal Profiles

Position Reports

Time Latitude Longitude Heading Altitude Ground
Speed
13-Jan-18 16:14 36.080931 -115.146026 254 2120ft 0kts
13-Jan-18 16:15 36.080931 -115.146026 254 2120ft 0kts
13-Jan-18 16:16 36.080931 -115.146026 254 2120ft 0kts
13-Jan-18 16:17 36.080931 -115.146026 254 2120ft 0kts
13-Jan-18 16:18 36.080931 -115.146026 254 2120ft 0kts
13-Jan-18 16:19 36.080931 -115.146026 254 2120ft 0kts
13-Jan-18 16:20 36.080931 -115.146026 254 2120ft 0kts
13-Jan-18 16:21 36.080931 -115.146026 254 2120ft 0kts
13-Jan-18 16:22 36.080931 -115.146026 254 2120ft 0kts
13-Jan-18 16:23 36.080931 -115.146026 254 2120ft 0kts
13-Jan-18 16:24 36.080931 -115.146026 254 2120ft 0kts
13-Jan-18 16:25 36.080931 -115.146026 254 2120ft 0kts
13-Jan-18 16:26 36.080931 -115.146026 254 2120ft 0kts
13-Jan-18 16:27 36.080931 -115.146026 254 2120ft 0kts
13-Jan-18 16:28 36.080930 -115.146026 254 2120ft 0kts
13-Jan-18 16:29 36.081011 -115.145668 254 2120ft 2kts
13-Jan-18 16:30 36.081273 -115.145222 175 2120ft 2kts
13-Jan-18 16:31 36.081366 -115.145256 155 2120ft 0kts
13-Jan-18 16:32 36.080794 -115.144993 164 2120ft 13kts
13-Jan-18 16:33 36.079742 -115.147787 334 2120ft 18kts
13-Jan-18 16:34 36.081272 -115.152930 282 2120ft 18kts
13-Jan-18 16:35 36.085032 -115.155941 337 2120ft 15kts
13-Jan-18 16:36 36.088759 -115.154934 359 2120ft 15kts
13-Jan-18 16:37 36.090798 -115.155107 341 2120ft 0kts
13-Jan-18 16:38 36.090798 -115.155107 341 2120ft 0kts
13-Jan-18 16:39 36.090798 -115.155107 341 2120ft 0kts
13-Jan-18 16:40 36.092848 -115.154643 30 2120ft 24kts
13-Jan-18 16:41 36.097882 -115.152279 306 2120ft 12kts
13-Jan-18 16:42 36.098010 -115.152543 298 2120ft 4kts
13-Jan-18 16:43 36.086181 -115.160565 204 2120ft 143kts
13-Jan-18 16:44 36.044007 -115.184550 204 3669ft 210kts
13-Jan-18 16:45 36.003612 -115.231585 241 5996ft 240kts
13-Jan-18 16:46 35.961446 -115.296769 196 7122ft 290kts
13-Jan-18 16:47 35.892567 -115.309658 186 9756ft 287kts
13-Jan-18 16:48 35.817381 -115.309825 175 11615ft 310kts
13-Jan-18 16:49 35.735399 -115.301058 175 13725ft 319kts
13-Jan-18 16:50 35.660342 -115.326468 225 15528ft 322kts
13-Jan-18 16:51 35.600055 -115.401248 229 17284ft 329kts
13-Jan-18 16:52 35.542805 -115.477078 230 18830ft 335kts
13-Jan-18 16:53 35.481652 -115.559206 230 19261ft 374kts
13-Jan-18 16:54 35.414465 -115.649691 230 20100ft 392kts
13-Jan-18 16:55 35.345457 -115.742434 229 21237ft 399kts
13-Jan-18 16:56 35.273780 -115.838513 229 22666ft 405kts
13-Jan-18 16:57 35.201810 -115.932830 228 24906ft 384kts
13-Jan-18 16:58 35.132287 -116.020649 228 25895ft 394kts
13-Jan-18 16:59 35.060964 -116.110416 228 26922ft 399kts
13-Jan-18 17:00 34.986933 -116.203337 228 27838ft 404kts
13-Jan-18 17:01 34.911672 -116.297550 228 28329ft 418kts
13-Jan-18 17:02 34.833880 -116.396037 228 28309ft 441kts
13-Jan-18 17:03 34.753296 -116.498538 228 28298ft 444kts
13-Jan-18 17:04 34.670394 -116.596187 222 28305ft 443kts
13-Jan-18 17:05 34.582487 -116.683087 221 27575ft 420kts
13-Jan-18 17:06 34.499135 -116.765485 225 25488ft 409kts
13-Jan-18 17:07 34.421679 -116.855406 225 23304ft 392kts
13-Jan-18 17:08 34.348003 -116.940796 225 19603ft 376kts
13-Jan-18 17:09 34.277570 -117.021766 222 16234ft 356kts
13-Jan-18 17:10 34.200196 -117.081369 212 13026ft 341kts
13-Jan-18 17:11 34.121209 -117.129043 205 11840ft 314kts
13-Jan-18 17:12 34.049389 -117.167797 205 11863ft 278kts
13-Jan-18 17:13 33.987069 -117.212846 228 11969ft 273kts
13-Jan-18 17:14 33.942715 -117.272247 230 11791ft 229kts
13-Jan-18 17:15 33.903484 -117.327024 231 10335ft 226kts
13-Jan-18 17:16 33.865718 -117.380235 231 9092ft 222kts
13-Jan-18 17:17 33.827823 -117.433667 231 8056ft 214kts
13-Jan-18 17:18 33.803580 -117.495154 250 8059ft 212kts
13-Jan-18 17:19 33.801143 -117.561719 274 8050ft 203kts
13-Jan-18 17:20 33.804359 -117.626926 304 7498ft 205kts
13-Jan-18 17:21 33.837821 -117.677523 311 6025ft 203kts
13-Jan-18 17:22 33.872958 -117.729330 311 6027ft 215kts
13-Jan-18 17:23 33.901090 -117.784636 261 4342ft 215kts
13-Jan-18 17:24 33.859474 -117.797520 151 4027ft 193kts
13-Jan-18 17:25 33.814567 -117.780589 203 3024ft 163kts
13-Jan-18 17:26 33.776878 -117.804554 206 2189ft 161kts
13-Jan-18 17:27 33.740203 -117.827886 207 1339ft 140kts
13-Jan-18 17:28 33.707143 -117.848894 207 644ft 140kts
13-Jan-18 17:29 33.676740 -117.868161 207 51ft 102kts
13-Jan-18 17:30 33.669197 -117.871724 130 56ft 0kts
13-Jan-18 17:31 33.670603 -117.869399 39 55ft 22kts
13-Jan-18 17:32 33.675700 -117.865475 28 48ft 22kts
13-Jan-18 17:33 33.677170 -117.863691 119 45ft 0kts

Navigation Log

Ident Type
Flight plan parsing failed, navigation log unavailable